createdAt,value
2022-08-09T00:00:12.164Z,24.30
2022-08-09T00:00:58.537Z,24.30
2022-08-09T00:01:54.942Z,24.30
2022-08-09T00:02:36.866Z,24.30
2022-08-09T00:04:05.838Z,24.30
2022-08-09T00:04:34.655Z,24.29
2022-08-09T00:06:19.161Z,24.28
2022-08-09T00:06:23.309Z,24.28
2022-08-09T00:07:10.601Z,24.27
2022-08-09T00:07:54.435Z,24.28
2022-08-09T00:08:39.020Z,24.27
2022-08-09T00:09:23.432Z,24.26
2022-08-09T00:10:21.251Z,24.26
2022-08-09T00:11:05.774Z,24.24
2022-08-09T00:12:15.621Z,24.25
2022-08-09T00:13:03.111Z,24.24
2022-08-09T00:13:47.308Z,24.24
2022-08-09T00:14:38.227Z,24.24
2022-08-09T00:15:26.509Z,24.23
2022-08-09T00:16:26.558Z,24.22
2022-08-09T00:18:06.178Z,24.22
2022-08-09T00:18:20.111Z,24.22
2022-08-09T00:19:09.445Z,24.21
2022-08-09T00:19:54.204Z,24.21
2022-08-09T00:20:42.309Z,24.21
2022-08-09T00:21:31.568Z,24.21
2022-08-09T00:22:19.471Z,24.21
2022-08-09T00:23:54.076Z,24.20
2022-08-09T00:24:04.456Z,24.21
2022-08-09T00:24:52.485Z,24.20
2022-08-09T00:25:36.018Z,24.19
2022-08-09T00:26:30.064Z,24.19
2022-08-09T00:27:12.794Z,24.19
2022-08-09T00:27:57.349Z,24.18
2022-08-09T00:28:52.799Z,24.18
2022-08-09T00:29:39.273Z,24.18
2022-08-09T00:30:38.980Z,24.18
2022-08-09T00:31:59.948Z,24.17
2022-08-09T00:32:27.388Z,24.17
2022-08-09T00:33:19.654Z,24.15
2022-08-09T00:34:19.495Z,24.16
2022-08-09T00:35:03.944Z,24.16
2022-08-09T00:35:48.718Z,24.16
2022-08-09T00:36:32.167Z,24.14
2022-08-09T00:37:18.477Z,24.16
2022-08-09T00:38:02.964Z,24.15
2022-08-09T00:38:51.769Z,24.15
2022-08-09T00:40:12.189Z,24.13
2022-08-09T00:40:38.736Z,24.13
2022-08-09T00:44:13.718Z,24.13
2022-08-09T00:44:16.958Z,24.13
2022-08-09T00:44:19.579Z,24.14
2022-08-09T00:44:44.056Z,24.13
2022-08-09T00:45:29.927Z,24.12
2022-08-09T00:46:28.489Z,24.12
2022-08-09T00:47:19.823Z,24.13
2022-08-09T00:48:03.883Z,24.13
2022-08-09T00:48:56.179Z,24.13
2022-08-09T00:49:41.071Z,24.13
2022-08-09T00:50:27.364Z,24.13
2022-08-09T00:51:12.965Z,24.12
2022-08-09T00:52:05.105Z,24.11
2022-08-09T00:52:48.876Z,24.12
2022-08-09T00:53:39.852Z,24.12
2022-08-09T00:54:36.635Z,24.12
2022-08-09T00:56:02.972Z,24.12
2022-08-09T00:56:24.877Z,24.11
2022-08-09T00:57:11.141Z,24.12
2022-08-09T00:57:59.272Z,24.12
2022-08-09T00:58:42.179Z,24.13
2022-08-09T00:59:40.589Z,24.12
2022-08-09T01:00:25.140Z,24.13
2022-08-09T01:01:10.461Z,24.13
2022-08-09T01:02:00.371Z,24.13
2022-08-09T01:02:46.732Z,24.13
2022-08-09T01:03:36.526Z,24.14
2022-08-09T01:04:22.512Z,24.13
2022-08-09T01:05:13.968Z,24.13
2022-08-09T01:05:58.146Z,24.14
2022-08-09T01:06:54.638Z,24.14
2022-08-09T01:08:00.980Z,24.14
2022-08-09T01:08:48.809Z,24.13
2022-08-09T01:09:36.871Z,24.14
2022-08-09T01:10:23.263Z,24.12
2022-08-09T01:11:15.003Z,24.11
2022-08-09T01:12:00.652Z,24.11
2022-08-09T01:12:48.356Z,24.11
2022-08-09T01:13:53.458Z,24.11
2022-08-09T01:14:32.042Z,24.09
2022-08-09T01:15:20.628Z,24.09
2022-08-09T01:16:06.910Z,24.08
2022-08-09T01:16:52.874Z,24.09
2022-08-09T01:17:41.126Z,24.08
2022-08-09T01:18:30.320Z,24.09
2022-08-09T01:19:16.996Z,24.09
2022-08-09T01:20:14.561Z,24.08
2022-08-09T01:21:02.903Z,24.09
2022-08-09T01:21:51.163Z,24.08
2022-08-09T01:22:37.921Z,24.08
2022-08-09T01:24:03.222Z,24.07
2022-08-09T01:24:20.979Z,24.07
2022-08-09T01:25:06.770Z,24.08
2022-08-09T01:25:52.816Z,24.07
2022-08-09T01:26:40.514Z,24.08
2022-08-09T01:27:27.218Z,24.08
2022-08-09T01:28:15.021Z,24.07
2022-08-09T01:29:05.108Z,24.08
2022-08-09T01:29:55.577Z,24.08
2022-08-09T01:30:51.921Z,24.08
2022-08-09T01:32:30.835Z,24.09
2022-08-09T01:32:37.714Z,24.08
2022-08-09T01:33:25.251Z,24.08
2022-08-09T01:34:11.681Z,24.08
2022-08-09T01:34:54.970Z,24.07
2022-08-09T01:35:42.209Z,24.07
2022-08-09T01:36:27.244Z,24.07
2022-08-09T01:37:21.708Z,24.07
2022-08-09T01:38:20.496Z,24.06
2022-08-09T01:39:06.364Z,24.06
2022-08-09T01:39:54.929Z,24.05
2022-08-09T01:40:52.787Z,24.06
2022-08-09T01:41:59.793Z,24.06
2022-08-09T01:42:46.343Z,24.06
2022-08-09T01:43:50.354Z,24.06
2022-08-09T01:44:35.099Z,24.05
2022-08-09T01:45:21.324Z,24.05
2022-08-09T01:46:04.572Z,24.05
2022-08-09T01:46:48.742Z,24.04
2022-08-09T01:47:44.729Z,24.04
2022-08-09T01:48:29.760Z,24.04
2022-08-09T01:49:14.784Z,24.06
2022-08-09T01:50:00.686Z,24.05
2022-08-09T01:50:55.545Z,24.05
2022-08-09T01:51:44.270Z,24.06
2022-08-09T01:52:30.288Z,24.05
2022-08-09T01:53:19.229Z,24.05
2022-08-09T01:54:06.411Z,24.05
2022-08-09T01:54:52.809Z,24.05
2022-08-09T01:55:41.159Z,24.04
2022-08-09T01:56:31.581Z,24.04
2022-08-09T01:57:17.288Z,24.04
2022-08-09T01:58:04.583Z,24.03
2022-08-09T01:58:51.761Z,24.04
2022-08-09T01:59:40.849Z,24.05
2022-08-09T02:00:34.767Z,24.04
2022-08-09T02:01:18.390Z,24.03
2022-08-09T02:02:04.506Z,24.03
2022-08-09T02:03:03.096Z,24.04
2022-08-09T02:03:51.422Z,24.03
2022-08-09T02:04:40.653Z,24.02
2022-08-09T02:05:38.105Z,24.02
2022-08-09T02:06:28.662Z,24.03
2022-08-09T02:08:35.478Z,24.00
2022-08-09T02:08:35.549Z,24.02
2022-08-09T02:09:22.158Z,24.02
2022-08-09T02:10:08.379Z,24.02
2022-08-09T02:10:57.882Z,24.01
2022-08-09T02:11:51.617Z,24.02
2022-08-09T02:12:37.805Z,24.02
2022-08-09T02:13:25.947Z,24.01
2022-08-09T02:14:25.574Z,24.02
2022-08-09T02:15:16.752Z,24.01
2022-08-09T02:16:01.087Z,24.00
2022-08-09T02:16:52.774Z,24.00
2022-08-09T02:18:00.625Z,23.99
2022-08-09T02:18:42.747Z,24.00
2022-08-09T02:19:38.834Z,23.99
2022-08-09T02:20:32.808Z,23.98
2022-08-09T02:21:22.057Z,23.99
2022-08-09T02:22:07.531Z,23.97
2022-08-09T02:22:51.449Z,23.98
2022-08-09T02:23:39.740Z,23.97
2022-08-09T02:24:25.824Z,23.97
2022-08-09T02:25:10.766Z,23.97
2022-08-09T02:25:57.742Z,23.97
2022-08-09T02:26:41.237Z,23.97
2022-08-09T02:27:27.481Z,23.96
2022-08-09T02:28:25.706Z,23.98
2022-08-09T02:29:10.186Z,23.98
2022-08-09T02:29:58.297Z,23.98
2022-08-09T02:30:46.393Z,23.98
2022-08-09T02:31:31.253Z,23.98
2022-08-09T02:32:16.994Z,23.99
2022-08-09T02:33:00.092Z,23.98
2022-08-09T02:34:06.980Z,23.97
2022-08-09T02:34:55.606Z,23.97
2022-08-09T02:36:00.987Z,23.97
2022-08-09T02:36:42.016Z,23.97
2022-08-09T02:37:31.767Z,23.96
2022-08-09T02:38:22.064Z,23.96
2022-08-09T02:39:14.522Z,23.96
2022-08-09T02:40:13.745Z,23.96
2022-08-09T02:41:00.985Z,23.96
2022-08-09T02:41:45.592Z,23.96
2022-08-09T02:42:29.250Z,23.95
2022-08-09T02:43:18.402Z,23.95
2022-08-09T02:44:06.472Z,23.95
2022-08-09T02:44:54.898Z,23.93
2022-08-09T02:45:43.310Z,23.95
2022-08-09T02:46:29.457Z,23.94
2022-08-09T02:47:19.380Z,23.94
2022-08-09T02:48:05.690Z,23.94
2022-08-09T02:48:54.169Z,23.94
2022-08-09T02:49:42.790Z,23.94
2022-08-09T02:50:31.245Z,23.94
2022-08-09T02:51:22.424Z,23.94
2022-08-09T02:52:08.289Z,23.94
2022-08-09T02:52:55.670Z,23.93
2022-08-09T02:53:39.522Z,23.94
2022-08-09T02:54:26.212Z,23.93
2022-08-09T02:55:19.794Z,23.93
2022-08-09T02:56:05.093Z,23.93
2022-08-09T02:56:57.126Z,23.93
2022-08-09T02:57:40.518Z,23.94
2022-08-09T02:58:38.078Z,23.94
2022-08-09T02:59:26.583Z,23.93
2022-08-09T03:00:25.981Z,23.94
2022-08-09T03:01:11.072Z,23.94
2022-08-09T03:02:05.487Z,23.93
2022-08-09T03:02:59.843Z,23.92
2022-08-09T03:04:17.840Z,23.93
2022-08-09T03:04:39.523Z,23.91
2022-08-09T03:05:26.229Z,23.92
2022-08-09T03:06:16.754Z,23.92
2022-08-09T03:07:12.351Z,23.92
2022-08-09T03:07:58.344Z,23.91
2022-08-09T03:08:47.609Z,23.90
2022-08-09T03:09:33.709Z,23.90
2022-08-09T03:10:18.554Z,23.90
2022-08-09T03:11:05.400Z,23.90
2022-08-09T03:12:06.598Z,23.90
2022-08-09T03:12:55.806Z,23.90
2022-08-09T03:13:59.478Z,23.90
2022-08-09T03:14:43.217Z,23.91
2022-08-09T03:15:40.603Z,23.91
2022-08-09T03:16:30.701Z,23.90
2022-08-09T03:17:20.354Z,23.91
2022-08-09T03:18:10.739Z,23.90
2022-08-09T03:18:55.761Z,23.89
2022-08-09T03:19:58.124Z,23.91
2022-08-09T03:20:44.330Z,23.89
2022-08-09T03:21:39.605Z,23.89
2022-08-09T03:22:25.750Z,23.90
2022-08-09T03:23:14.721Z,23.89
2022-08-09T03:24:03.698Z,23.89
2022-08-09T03:24:52.223Z,23.89
2022-08-09T03:25:59.449Z,23.89
2022-08-09T03:26:37.081Z,23.88
2022-08-09T03:27:29.895Z,23.89
2022-08-09T03:28:29.744Z,23.88
2022-08-09T03:29:22.912Z,23.88
2022-08-09T03:30:13.036Z,23.89
2022-08-09T03:30:57.784Z,23.87
2022-08-09T03:31:59.492Z,23.88
2022-08-09T03:32:45.717Z,23.87
2022-08-09T03:33:53.429Z,23.87
2022-08-09T03:34:36.472Z,23.86
2022-08-09T03:35:44.198Z,23.86
2022-08-09T03:36:27.151Z,23.87
2022-08-09T03:37:56.567Z,23.87
2022-08-09T03:38:28.499Z,23.86
2022-08-09T03:39:14.355Z,23.86
2022-08-09T03:40:01.251Z,23.87
2022-08-09T03:40:47.294Z,23.87
2022-08-09T03:41:45.791Z,23.88
2022-08-09T03:42:32.487Z,23.87
2022-08-09T03:43:20.071Z,23.87
2022-08-09T03:44:08.615Z,23.86
2022-08-09T03:44:53.892Z,23.86
2022-08-09T03:46:13.591Z,23.85
2022-08-09T03:46:39.922Z,23.85
2022-08-09T03:47:26.511Z,23.86
2022-08-09T03:48:19.141Z,23.85
2022-08-09T03:49:16.642Z,23.86
2022-08-09T03:50:03.219Z,23.85
2022-08-09T03:50:48.670Z,23.85
2022-08-09T03:51:57.588Z,23.85
2022-08-09T03:52:35.668Z,23.85
2022-08-09T03:53:22.398Z,23.85
2022-08-09T03:54:17.544Z,23.85
2022-08-09T03:55:09.627Z,23.84
2022-08-09T03:55:53.615Z,23.83
2022-08-09T03:56:41.608Z,23.84
2022-08-09T03:57:31.908Z,23.83
2022-08-09T03:58:21.321Z,23.83
2022-08-09T03:59:07.069Z,23.82
2022-08-09T03:59:56.048Z,23.82
2022-08-09T04:00:45.498Z,23.82
2022-08-09T04:01:39.538Z,23.84
2022-08-09T04:02:26.437Z,23.83
2022-08-09T04:03:24.631Z,23.83
2022-08-09T04:04:20.786Z,23.82
2022-08-09T04:05:17.137Z,23.82
2022-08-09T04:06:11.990Z,23.82
2022-08-09T04:06:57.810Z,23.83
2022-08-09T04:07:53.247Z,23.81
2022-08-09T04:08:40.880Z,23.81
2022-08-09T04:09:44.393Z,23.80
2022-08-09T04:10:32.566Z,23.80
2022-08-09T04:11:19.071Z,23.80
2022-08-09T04:12:05.143Z,23.79
2022-08-09T04:12:52.864Z,23.80
2022-08-09T04:14:36.968Z,23.79
2022-08-09T04:14:53.682Z,23.79
2022-08-09T04:16:19.313Z,23.77
2022-08-09T04:16:48.043Z,23.78
2022-08-09T04:17:39.277Z,23.76
2022-08-09T04:18:27.351Z,23.76
2022-08-09T04:19:15.950Z,23.78
2022-08-09T04:20:16.143Z,23.76
2022-08-09T04:21:04.734Z,23.75
2022-08-09T04:21:52.193Z,23.75
2022-08-09T04:22:46.124Z,23.74
2022-08-09T04:23:31.976Z,23.75
2022-08-09T04:24:22.458Z,23.75
2022-08-09T04:25:11.377Z,23.74
2022-08-09T04:25:57.093Z,23.74
2022-08-09T04:26:44.432Z,23.73
2022-08-09T04:27:33.493Z,23.73
2022-08-09T04:28:31.410Z,23.73
2022-08-09T04:29:21.019Z,23.73
2022-08-09T04:30:08.560Z,23.74
2022-08-09T04:30:52.381Z,23.72
2022-08-09T04:31:47.081Z,23.73
2022-08-09T04:32:33.617Z,23.72
2022-08-09T04:33:21.290Z,23.71
2022-08-09T04:34:11.893Z,23.71
2022-08-09T04:35:01.530Z,23.71
2022-08-09T04:35:44.084Z,23.72
2022-08-09T04:36:29.697Z,23.72
2022-08-09T04:37:18.907Z,23.71
2022-08-09T04:38:08.532Z,23.72
2022-08-09T04:38:56.459Z,23.72
2022-08-09T04:39:44.272Z,23.72
2022-08-09T04:40:36.542Z,23.72
2022-08-09T04:41:17.903Z,23.72
2022-08-09T04:42:04.879Z,23.72
2022-08-09T04:42:54.070Z,23.72
2022-08-09T04:43:53.854Z,23.71
2022-08-09T04:44:49.093Z,23.71
2022-08-09T04:45:36.100Z,23.71
2022-08-09T04:46:36.511Z,23.71
2022-08-09T04:47:45.221Z,23.71
2022-08-09T04:48:36.375Z,23.71
2022-08-09T04:49:40.663Z,23.71
2022-08-09T04:50:25.045Z,23.71
2022-08-09T04:51:16.540Z,23.71
2022-08-09T04:52:02.866Z,23.71
2022-08-09T04:52:51.673Z,23.71
2022-08-09T04:53:37.032Z,23.70
2022-08-09T04:54:27.155Z,23.69
2022-08-09T04:55:13.765Z,23.69
2022-08-09T04:56:07.282Z,23.68
2022-08-09T04:56:52.486Z,23.67
2022-08-09T04:57:59.278Z,23.68
2022-08-09T04:58:38.010Z,23.67
2022-08-09T04:59:25.035Z,23.68
2022-08-09T05:00:14.524Z,23.68
2022-08-09T05:00:59.539Z,23.68
2022-08-09T05:01:47.546Z,23.69
2022-08-09T05:02:32.158Z,23.69
2022-08-09T05:03:40.635Z,23.68
2022-08-09T05:04:20.981Z,23.68
2022-08-09T05:05:10.047Z,23.70
2022-08-09T05:06:06.775Z,23.68
2022-08-09T05:06:50.582Z,23.69
2022-08-09T05:07:33.960Z,23.69
2022-08-09T05:08:18.325Z,23.69
2022-08-09T05:09:02.737Z,23.70
2022-08-09T05:09:50.037Z,23.69
2022-08-09T05:10:33.813Z,23.69
2022-08-09T05:11:19.534Z,23.69
2022-08-09T05:12:08.965Z,23.70
2022-08-09T05:12:53.811Z,23.70
2022-08-09T05:13:39.560Z,23.68
2022-08-09T05:14:26.963Z,23.69
2022-08-09T05:15:11.697Z,23.69
2022-08-09T05:15:56.728Z,23.69
2022-08-09T05:16:58.024Z,23.69
2022-08-09T05:18:50.331Z,23.69
2022-08-09T05:18:58.271Z,23.68
2022-08-09T05:19:44.722Z,23.69
2022-08-09T05:20:30.514Z,23.68
2022-08-09T05:21:24.425Z,23.68
2022-08-09T05:22:33.484Z,23.68
2022-08-09T05:23:55.754Z,23.68
2022-08-09T05:24:17.394Z,23.68
2022-08-09T05:25:03.314Z,23.67
2022-08-09T05:25:53.017Z,23.67
2022-08-09T05:26:46.108Z,23.67
2022-08-09T05:27:35.281Z,23.66
2022-08-09T05:28:31.001Z,23.67
2022-08-09T05:29:21.506Z,23.67
2022-08-09T05:30:07.890Z,23.66
2022-08-09T05:30:57.586Z,23.66
2022-08-09T05:31:46.571Z,23.66
2022-08-09T05:32:30.036Z,23.68
2022-08-09T05:33:17.279Z,23.68
2022-08-09T05:34:01.442Z,23.68
2022-08-09T05:34:48.032Z,23.67
2022-08-09T05:35:38.883Z,23.66
2022-08-09T05:37:46.426Z,23.67
2022-08-09T05:38:32.605Z,23.67
2022-08-09T05:39:28.599Z,23.66
2022-08-09T05:40:13.010Z,23.66
2022-08-09T05:41:03.243Z,23.65
2022-08-09T05:41:51.688Z,23.65
2022-08-09T05:42:44.262Z,23.65
2022-08-09T05:43:31.821Z,23.64
2022-08-09T05:44:29.078Z,23.64
2022-08-09T05:45:19.488Z,23.65
2022-08-09T05:46:09.096Z,23.65
2022-08-09T05:46:57.251Z,23.66
2022-08-09T05:47:45.553Z,23.66
2022-08-09T05:48:35.599Z,23.66
2022-08-09T05:50:09.091Z,23.66
2022-08-09T05:50:50.677Z,23.66
2022-08-09T05:51:42.714Z,23.66
2022-08-09T05:52:30.808Z,23.66
2022-08-09T05:53:32.516Z,23.67
2022-08-09T05:54:17.985Z,23.66
2022-08-09T05:55:07.138Z,23.67
2022-08-09T05:55:54.667Z,23.67
2022-08-09T05:56:54.718Z,23.65
2022-08-09T05:57:50.937Z,23.64
2022-08-09T05:58:43.696Z,23.66
2022-08-09T05:59:30.684Z,23.65
2022-08-09T06:00:18.513Z,23.66
2022-08-09T06:01:03.161Z,23.65
2022-08-09T06:01:49.978Z,23.66
2022-08-09T06:02:35.807Z,23.65
2022-08-09T06:03:19.885Z,23.65
2022-08-09T06:04:02.691Z,23.65
2022-08-09T06:04:50.492Z,23.65
2022-08-09T06:05:56.926Z,23.66
2022-08-09T06:06:49.928Z,23.66
2022-08-09T06:07:35.009Z,23.64
2022-08-09T06:08:24.573Z,23.64
2022-08-09T06:09:23.118Z,23.64
2022-08-09T06:10:15.873Z,23.64
2022-08-09T06:11:03.063Z,23.64
2022-08-09T06:12:02.394Z,23.64
2022-08-09T06:12:50.438Z,23.64
2022-08-09T06:13:48.573Z,23.63
2022-08-09T06:14:34.067Z,23.62
2022-08-09T06:15:20.643Z,23.63
2022-08-09T06:16:09.272Z,23.62
2022-08-09T06:16:57.331Z,23.61
2022-08-09T06:17:43.653Z,23.61
2022-08-09T06:18:28.122Z,23.62
2022-08-09T06:19:13.814Z,23.62
2022-08-09T06:20:00.089Z,23.63
2022-08-09T06:20:54.087Z,23.62
2022-08-09T06:21:51.562Z,23.62
2022-08-09T06:22:42.970Z,23.62
2022-08-09T06:23:55.541Z,23.61
2022-08-09T06:24:38.900Z,23.61
2022-08-09T06:25:24.857Z,23.61
2022-08-09T06:26:09.053Z,23.62
2022-08-09T06:26:55.370Z,23.63
2022-08-09T06:27:51.474Z,23.64
2022-08-09T06:28:43.212Z,23.63
2022-08-09T06:29:27.420Z,23.65
2022-08-09T06:30:16.139Z,23.65
2022-08-09T06:31:06.735Z,23.65
2022-08-09T06:32:36.107Z,23.66
2022-08-09T06:33:00.470Z,23.67
2022-08-09T06:34:03.236Z,23.66
2022-08-09T06:34:53.039Z,23.66
2022-08-09T06:35:57.530Z,23.66
2022-08-09T06:36:37.339Z,23.67
2022-08-09T06:37:29.039Z,23.67
2022-08-09T06:38:15.828Z,23.68
2022-08-09T06:39:02.655Z,23.68
2022-08-09T06:40:00.214Z,23.69
2022-08-09T06:40:47.321Z,23.69
2022-08-09T06:42:08.922Z,23.68
2022-08-09T06:42:48.052Z,23.68
2022-08-09T06:43:40.467Z,23.68
2022-08-09T06:44:29.216Z,23.68
2022-08-09T06:46:04.749Z,23.69
2022-08-09T06:46:39.565Z,23.68
2022-08-09T06:47:20.355Z,23.69
2022-08-09T06:48:08.885Z,23.71
2022-08-09T06:49:02.907Z,23.70
2022-08-09T06:50:12.664Z,23.70
2022-08-09T06:50:53.783Z,23.71
2022-08-09T06:51:42.572Z,23.71
2022-08-09T06:52:30.338Z,23.72
2022-08-09T06:53:16.916Z,23.72
2022-08-09T06:54:09.129Z,23.72
2022-08-09T06:54:58.481Z,23.73
2022-08-09T06:55:50.352Z,23.73
2022-08-09T06:56:40.703Z,23.74
2022-08-09T06:58:01.059Z,23.73
2022-08-09T07:00:47.569Z,23.73
2022-08-09T07:00:52.110Z,23.72
2022-08-09T07:00:54.214Z,23.72
2022-08-09T07:01:59.470Z,23.72
2022-08-09T07:02:39.827Z,23.72
2022-08-09T07:03:30.899Z,23.72
2022-08-09T07:04:19.681Z,23.71
2022-08-09T07:05:00.915Z,23.71
2022-08-09T07:06:19.649Z,23.70
2022-08-09T07:08:25.049Z,23.70
2022-08-09T07:09:55.497Z,23.70
2022-08-09T07:10:29.925Z,23.71
2022-08-09T07:11:17.592Z,23.70
2022-08-09T07:12:17.737Z,23.71
2022-08-09T07:13:05.323Z,23.71
2022-08-09T07:14:06.373Z,23.70
2022-08-09T07:14:53.703Z,23.69
2022-08-09T07:16:38.931Z,23.69
2022-08-09T07:16:49.742Z,23.68
2022-08-09T07:17:52.724Z,23.68
2022-08-09T07:18:41.377Z,23.69
2022-08-09T07:19:29.496Z,23.70
2022-08-09T07:20:12.477Z,23.71
2022-08-09T07:21:00.116Z,23.71
2022-08-09T07:21:57.730Z,23.71
2022-08-09T07:23:20.776Z,23.71
2022-08-09T07:24:09.822Z,23.72
2022-08-09T07:24:58.922Z,23.71
2022-08-09T07:25:43.586Z,23.72
2022-08-09T07:26:32.230Z,23.72
2022-08-09T07:27:27.146Z,23.72
2022-08-09T07:28:19.289Z,23.72
2022-08-09T07:29:13.491Z,23.72
2022-08-09T07:30:00.551Z,23.72
2022-08-09T07:30:47.783Z,23.72
2022-08-09T07:31:38.630Z,23.72
2022-08-09T07:32:34.239Z,23.71
2022-08-09T07:33:20.393Z,23.71
2022-08-09T07:34:08.530Z,23.72
2022-08-09T07:35:10.124Z,23.72
2022-08-09T07:35:54.298Z,23.72
2022-08-09T07:36:41.001Z,23.73
2022-08-09T07:37:29.028Z,23.73
2022-08-09T07:38:17.762Z,23.73
2022-08-09T07:39:11.616Z,23.74
2022-08-09T07:40:37.236Z,23.73
2022-08-09T07:41:38.875Z,23.73
2022-08-09T07:42:26.081Z,23.72
2022-08-09T07:43:18.430Z,23.72
2022-08-09T07:44:08.053Z,23.71
2022-08-09T07:44:59.687Z,23.71
2022-08-09T07:45:46.827Z,23.71
2022-08-09T07:46:33.043Z,23.72
2022-08-09T07:47:23.311Z,23.71
2022-08-09T07:48:25.888Z,23.72
2022-08-09T07:49:16.903Z,23.71
2022-08-09T07:50:34.666Z,23.72
2022-08-09T07:52:05.050Z,23.73
2022-08-09T07:52:21.498Z,23.72
2022-08-09T07:53:07.008Z,23.73
2022-08-09T07:54:04.916Z,23.72
2022-08-09T07:54:51.456Z,23.72
2022-08-09T07:55:41.669Z,23.72
2022-08-09T07:56:37.019Z,23.72
2022-08-09T07:57:33.734Z,23.72
2022-08-09T07:58:21.607Z,23.72
2022-08-09T07:59:14.082Z,23.72
2022-08-09T08:00:09.229Z,23.72
2022-08-09T08:01:06.224Z,23.73
2022-08-09T08:01:53.158Z,23.71
2022-08-09T08:02:42.807Z,23.72
2022-08-09T08:03:28.241Z,23.71
2022-08-09T08:04:12.226Z,23.72
2022-08-09T08:04:56.148Z,23.72
2022-08-09T08:05:54.177Z,23.72
2022-08-09T08:06:55.961Z,23.70
2022-08-09T08:08:43.083Z,23.71
2022-08-09T08:09:01.899Z,23.71
2022-08-09T08:09:51.809Z,23.71
2022-08-09T08:10:37.662Z,23.72
2022-08-09T08:12:10.670Z,23.72
2022-08-09T08:12:27.413Z,23.71
2022-08-09T08:13:19.794Z,23.71
2022-08-09T08:14:06.775Z,23.71
2022-08-09T08:14:50.794Z,23.71
2022-08-09T08:15:39.251Z,23.72
2022-08-09T08:16:31.927Z,23.70
2022-08-09T08:17:14.120Z,23.70
2022-08-09T08:18:14.507Z,23.71
2022-08-09T08:18:58.548Z,23.71
2022-08-09T08:19:43.352Z,23.72
2022-08-09T08:20:30.248Z,23.72
2022-08-09T08:21:13.499Z,23.72
2022-08-09T08:22:00.656Z,23.73
2022-08-09T08:22:44.828Z,23.74
2022-08-09T08:23:31.700Z,23.73
2022-08-09T08:24:18.216Z,23.73
2022-08-09T08:25:04.282Z,23.73
2022-08-09T08:26:08.333Z,23.74
2022-08-09T08:26:55.692Z,23.73
2022-08-09T08:27:40.894Z,23.72
2022-08-09T08:28:32.793Z,23.74
2022-08-09T08:29:20.134Z,23.73
2022-08-09T08:30:11.095Z,23.73
2022-08-09T08:30:56.716Z,23.73
2022-08-09T08:32:03.866Z,23.73
2022-08-09T08:32:39.997Z,23.73
2022-08-09T08:33:40.615Z,23.74
2022-08-09T08:34:36.591Z,23.74
2022-08-09T08:35:22.200Z,23.75
2022-08-09T08:36:06.569Z,23.75
2022-08-09T08:36:48.039Z,23.75
2022-08-09T08:37:41.154Z,23.75
2022-08-09T08:38:33.188Z,23.75
2022-08-09T08:39:17.706Z,23.76
2022-08-09T08:40:02.823Z,23.76
2022-08-09T08:40:49.519Z,23.77
2022-08-09T08:41:51.193Z,23.78
2022-08-09T08:42:35.121Z,23.76
2022-08-09T08:43:21.118Z,23.76
2022-08-09T08:44:05.567Z,23.77
2022-08-09T08:44:50.354Z,23.76
2022-08-09T08:45:37.200Z,23.77
2022-08-09T08:46:32.908Z,23.75
2022-08-09T08:47:17.136Z,23.76
2022-08-09T08:48:04.094Z,23.76
2022-08-09T08:48:51.688Z,23.76
2022-08-09T08:49:46.665Z,23.78
2022-08-09T08:50:31.031Z,23.76
2022-08-09T08:51:13.203Z,23.76
2022-08-09T08:52:00.351Z,23.76
2022-08-09T08:52:59.396Z,23.76
2022-08-09T08:54:03.530Z,23.78
2022-08-09T08:54:43.826Z,23.76
2022-08-09T08:55:28.774Z,23.76
2022-08-09T08:56:24.969Z,23.78
2022-08-09T08:57:11.666Z,23.78
2022-08-09T08:57:56.385Z,23.78
2022-08-09T08:58:44.499Z,23.78
2022-08-09T08:59:46.703Z,23.78
2022-08-09T09:00:34.486Z,23.76
2022-08-09T09:01:19.747Z,23.78
2022-08-09T09:02:05.781Z,23.78
2022-08-09T09:02:52.234Z,23.79
2022-08-09T09:03:37.487Z,23.78
2022-08-09T09:04:27.403Z,23.79
2022-08-09T09:05:12.070Z,23.80
2022-08-09T09:05:58.882Z,23.79
2022-08-09T09:06:46.285Z,23.79
2022-08-09T09:07:27.939Z,23.79
2022-08-09T09:08:30.922Z,23.80
2022-08-09T09:09:40.932Z,23.80
2022-08-09T09:10:14.504Z,23.81
2022-08-09T09:11:01.935Z,23.83
2022-08-09T09:11:46.703Z,23.82
2022-08-09T09:12:31.197Z,23.82
2022-08-09T09:13:15.485Z,23.83
2022-08-09T09:14:00.830Z,23.83
2022-08-09T09:14:47.944Z,23.83
2022-08-09T09:15:32.777Z,23.83
2022-08-09T09:16:17.655Z,23.83
2022-08-09T09:17:16.579Z,23.83
2022-08-09T09:18:04.232Z,23.84
2022-08-09T09:18:54.903Z,23.83
2022-08-09T09:19:45.138Z,23.83
2022-08-09T09:20:31.139Z,23.83
2022-08-09T09:21:26.105Z,23.84
2022-08-09T09:22:11.825Z,23.84
2022-08-09T09:22:54.180Z,23.84
2022-08-09T09:23:38.555Z,23.84
2022-08-09T09:24:24.596Z,23.84
2022-08-09T09:26:02.600Z,23.85
2022-08-09T09:26:11.924Z,23.86
2022-08-09T09:26:55.697Z,23.85
2022-08-09T09:28:05.905Z,23.86
2022-08-09T09:29:04.076Z,23.86
2022-08-09T09:30:09.280Z,23.86
2022-08-09T09:30:40.921Z,23.85
2022-08-09T09:32:05.867Z,23.86
2022-08-09T09:32:32.180Z,23.86
2022-08-09T09:33:21.513Z,23.87
2022-08-09T09:34:05.076Z,23.86
2022-08-09T09:34:51.335Z,23.87
2022-08-09T09:35:36.003Z,23.86
2022-08-09T09:36:23.141Z,23.87
2022-08-09T09:37:09.017Z,23.87
2022-08-09T09:37:53.572Z,23.88
2022-08-09T09:38:39.428Z,23.87
2022-08-09T09:39:25.670Z,23.87
2022-08-09T09:40:25.566Z,23.88
2022-08-09T09:41:09.949Z,23.88
2022-08-09T09:41:54.567Z,23.88
2022-08-09T09:42:42.823Z,23.88
2022-08-09T09:43:23.439Z,23.89
2022-08-09T09:44:11.694Z,23.89
2022-08-09T09:44:56.233Z,23.89
2022-08-09T09:45:56.999Z,23.89
2022-08-09T09:46:42.980Z,23.89
2022-08-09T09:47:28.814Z,23.89
2022-08-09T09:48:09.953Z,23.89
2022-08-09T09:48:55.629Z,23.89
2022-08-09T09:50:13.836Z,23.88
2022-08-09T09:50:42.111Z,23.88
2022-08-09T09:51:38.504Z,23.88
2022-08-09T09:52:36.540Z,23.89
2022-08-09T09:53:18.148Z,23.89
2022-08-09T09:54:07.456Z,23.89
2022-08-09T09:54:57.843Z,23.90
2022-08-09T09:55:46.097Z,23.91
2022-08-09T09:56:53.252Z,23.89
2022-08-09T09:58:04.302Z,23.90
2022-08-09T09:58:41.910Z,23.91
2022-08-09T09:59:35.157Z,23.90
2022-08-09T10:00:19.054Z,23.90
2022-08-09T10:01:06.285Z,23.91
2022-08-09T10:02:07.922Z,23.91
2022-08-09T10:02:55.062Z,23.90
2022-08-09T10:03:40.153Z,23.90
2022-08-09T10:04:22.959Z,23.91
2022-08-09T10:05:12.976Z,23.91
2022-08-09T10:06:03.976Z,23.91
2022-08-09T10:06:51.876Z,23.91
2022-08-09T10:07:37.280Z,23.91
2022-08-09T10:08:54.368Z,23.92
2022-08-09T10:09:48.706Z,23.92
2022-08-09T10:10:34.209Z,23.91
2022-08-09T10:12:01.348Z,23.91
2022-08-09T10:12:43.660Z,23.91
2022-08-09T10:13:24.568Z,23.92
2022-08-09T10:14:27.462Z,23.91
2022-08-09T10:15:17.636Z,23.92
2022-08-09T10:16:56.923Z,23.92
2022-08-09T10:17:40.101Z,23.93
2022-08-09T10:18:12.652Z,23.93
2022-08-09T10:19:00.073Z,23.93
2022-08-09T10:19:45.964Z,23.92
2022-08-09T10:20:35.649Z,23.92
2022-08-09T10:21:19.902Z,23.93
2022-08-09T10:22:07.752Z,23.92
2022-08-09T10:22:57.225Z,23.94
2022-08-09T10:23:43.877Z,23.93
2022-08-09T10:24:35.845Z,23.93
2022-08-09T10:25:23.550Z,23.93
2022-08-09T10:26:19.458Z,23.92
2022-08-09T10:27:10.088Z,23.93
2022-08-09T10:27:57.573Z,23.93
2022-08-09T10:28:41.473Z,23.93
2022-08-09T10:30:11.709Z,23.93
2022-08-09T10:32:42.743Z,23.94
2022-08-09T10:33:29.639Z,23.94
2022-08-09T10:34:33.885Z,23.93
2022-08-09T10:35:20.493Z,23.94
2022-08-09T10:36:11.837Z,23.94
2022-08-09T10:36:55.415Z,23.94
2022-08-09T10:37:42.091Z,23.94
2022-08-09T10:38:41.731Z,23.94
2022-08-09T10:39:28.628Z,23.94
2022-08-09T10:40:33.268Z,23.94
2022-08-09T10:41:11.749Z,23.93
2022-08-09T10:41:56.652Z,23.94
2022-08-09T10:42:42.327Z,23.94
2022-08-09T10:43:47.149Z,23.94
2022-08-09T10:44:28.878Z,23.94
2022-08-09T10:45:15.961Z,23.94
2022-08-09T10:46:02.109Z,23.95
2022-08-09T10:46:54.564Z,23.95
2022-08-09T10:48:19.382Z,23.95
2022-08-09T10:48:38.020Z,23.94
2022-08-09T10:49:50.117Z,23.95
2022-08-09T10:50:30.630Z,23.95
2022-08-09T10:51:17.946Z,23.94
2022-08-09T10:52:00.396Z,23.95
2022-08-09T10:52:47.714Z,23.95
2022-08-09T10:53:32.056Z,23.95
2022-08-09T10:54:22.327Z,23.95
2022-08-09T10:55:10.266Z,23.95
2022-08-09T10:55:57.786Z,23.94
2022-08-09T10:56:43.341Z,23.95